sensor_id;sensor_type;location;lat;lon;timestamp;P1;durP1;ratioP1;P2;durP2;ratioP2
438;SDS011;206;48.782;9.252;2024-01-15T00:00:41;15.37;;;9.20;;
438;SDS011;206;48.782;9.252;2024-01-15T00:03:07;15.53;;;8.70;;
438;SDS011;206;48.782;9.252;2024-01-15T00:05:33;18.23;;;11.03;;
438;SDS011;206;48.782;9.252;2024-01-15T00:07:58;13.73;;;10.17;;
438;SDS011;206;48.782;9.252;2024-01-15T00:10:24;17.80;;;10.13;;
438;SDS011;206;48.782;9.252;2024-01-15T00:12:50;16.70;;;9.80;;
438;SDS011;206;48.782;9.252;2024-01-15T00:15:15;17.27;;;9.13;;
438;SDS011;206;48.782;9.252;2024-01-15T00:17:41;15.53;;;8.50;;
438;SDS011;206;48.782;9.252;2024-01-15T00:20:07;15.43;;;9.53;;
438;SDS011;206;48.782;9.252;2024-01-15T00:22:32;20.70;;;10.60;;
438;SDS011;206;48.782;9.252;2024-01-15T00:25:00;18.77;;;11.13;;
438;SDS011;206;48.782;9.252;2024-01-15T00:27:26;16.27;;;9.90;;
438;SDS011;206;48.782;9.252;2024-01-15T00:29:52;16.37;;;9.37;;
438;SDS011;206;48.782;9.252;2024-01-15T00:32:17;18.37;;;11.37;;
438;SDS011;206;48.782;9.252;2024-01-15T00:34:43;17.93;;;10.70;;
438;SDS011;206;48.782;9.252;2024-01-15T00:37:08;18.77;;;11.27;;
438;SDS011;206;48.782;9.252;2024-01-15T00:39:34;19.77;;;9.83;;
438;SDS011;206;48.782;9.252;2024-01-15T00:42:00;15.60;;;9.97;;
438;SDS011;206;48.782;9.252;2024-01-15T00:44:26;21.10;;;10.40;;
438;SDS011;206;48.782;9.252;2024-01-15T00:46:51;17.07;;;9.40;;
438;SDS011;206;48.782;9.252;2024-01-15T00:49:17;15.87;;;8.43;;
438;SDS011;206;48.782;9.252;2024-01-15T00:51:43;15.10;;;9.93;;
438;SDS011;206;48.782;9.252;2024-01-15T00:54:08;15.57;;;8.60;;
438;SDS011;206;48.782;9.252;2024-01-15T00:56:34;17.57;;;8.63;;
438;SDS011;206;48.782;9.252;2024-01-15T00:59:00;17.33;;;9.87;;
438;SDS011;206;48.782;9.252;2024-01-15T01:01:25;19.57;;;9.63;;
438;SDS011;206;48.782;9.252;2024-01-15T01:03:51;17.83;;;10.90;;
438;SDS011;206;48.782;9.252;2024-01-15T01:06:16;20.47;;;10.40;;
438;SDS011;206;48.782;9.252;2024-01-15T01:08:42;15.43;;;9.47;;
438;SDS011;206;48.782;9.252;2024-01-15T01:11:07;16.03;;;7.83;;
438;SDS011;206;48.782;9.252;2024-01-15T01:13:38;16.95;;;9.68;;
438;SDS011;206;48.782;9.252;2024-01-15T01:16:04;15.13;;;8.57;;
438;SDS011;206;48.782;9.252;2024-01-15T01:18:29;17.90;;;10.37;;
438;SDS011;206;48.782;9.252;2024-01-15T01:20:55;13.70;;;7.90;;
438;SDS011;206;48.782;9.252;2024-01-15T01:23:20;23.40;;;10.33;;
438;SDS011;206;48.782;9.252;2024-01-15T01:25:46;16.23;;;9.23;;
438;SDS011;206;48.782;9.252;2024-01-15T01:28:11;16.90;;;9.63;;
438;SDS011;206;48.782;9.252;2024-01-15T01:30:37;16.93;;;8.77;;
438;SDS011;206;48.782;9.252;2024-01-15T01:33:02;12.57;;;8.00;;
438;SDS011;206;48.782;9.252;2024-01-15T01:35:28;19.30;;;10.07;;
438;SDS011;206;48.782;9.252;2024-01-15T01:37:54;15.80;;;9.30;;
438;SDS011;206;48.782;9.252;2024-01-15T01:40:19;16.83;;;9.00;;
438;SDS011;206;48.782;9.252;2024-01-15T01:42:45;17.53;;;8.50;;
438;SDS011;206;48.782;9.252;2024-01-15T01:45:11;16.73;;;7.70;;
438;SDS011;206;48.782;9.252;2024-01-15T01:47:37;17.50;;;9.40;;
438;SDS011;206;48.782;9.252;2024-01-15T01:50:03;15.20;;;8.03;;
438;SDS011;206;48.782;9.252;2024-01-15T01:52:30;14.10;;;8.63;;
438;SDS011;206;48.782;9.252;2024-01-15T01:54:56;13.90;;;8.20;;
438;SDS011;206;48.782;9.252;2024-01-15T01:57:23;16.63;;;7.50;;
438;SDS011;206;48.782;9.252;2024-01-15T01:59:49;14.83;;;7.80;;
438;SDS011;206;48.782;9.252;2024-01-15T02:02:15;14.87;;;8.87;;
438;SDS011;206;48.782;9.252;2024-01-15T02:04:41;19.30;;;9.00;;
438;SDS011;206;48.782;9.252;2024-01-15T02:07:08;18.67;;;8.87;;
438;SDS011;206;48.782;9.252;2024-01-15T02:09:35;13.90;;;9.00;;
438;SDS011;206;48.782;9.252;2024-01-15T02:12:00;14.33;;;9.00;;
438;SDS011;206;48.782;9.252;2024-01-15T02:14:26;15.17;;;8.27;;
438;SDS011;206;48.782;9.252;2024-01-15T02:16:52;17.93;;;9.13;;
438;SDS011;206;48.782;9.252;2024-01-15T02:19:17;18.40;;;8.50;;
438;SDS011;206;48.782;9.252;2024-01-15T02:21:43;15.43;;;8.55;;
438;SDS011;206;48.782;9.252;2024-01-15T02:24:09;13.30;;;8.43;;
438;SDS011;206;48.782;9.252;2024-01-15T02:26:36;15.37;;;8.40;;
438;SDS011;206;48.782;9.252;2024-01-15T02:29:03;13.70;;;8.50;;
438;SDS011;206;48.782;9.252;2024-01-15T02:31:30;19.90;;;8.60;;
438;SDS011;206;48.782;9.252;2024-01-15T02:33:55;15.50;;;7.43;;
438;SDS011;206;48.782;9.252;2024-01-15T02:36:21;12.30;;;8.20;;
438;SDS011;206;48.782;9.252;2024-01-15T02:38:47;14.77;;;8.00;;
438;SDS011;206;48.782;9.252;2024-01-15T02:41:12;10.77;;;7.13;;
438;SDS011;206;48.782;9.252;2024-01-15T02:43:39;11.53;;;7.77;;
438;SDS011;206;48.782;9.252;2024-01-15T02:46:05;15.02;;;8.48;;
438;SDS011;206;48.782;9.252;2024-01-15T02:48:31;14.83;;;7.93;;
438;SDS011;206;48.782;9.252;2024-01-15T02:50:58;10.13;;;6.50;;
438;SDS011;206;48.782;9.252;2024-01-15T02:53:24;13.67;;;7.10;;
438;SDS011;206;48.782;9.252;2024-01-15T02:55:49;12.17;;;6.80;;
438;SDS011;206;48.782;9.252;2024-01-15T02:58:15;10.33;;;7.30;;
438;SDS011;206;48.782;9.252;2024-01-15T03:00:40;10.20;;;5.97;;
438;SDS011;206;48.782;9.252;2024-01-15T03:03:07;12.05;;;6.43;;
438;SDS011;206;48.782;9.252;2024-01-15T03:05:33;12.30;;;8.43;;
438;SDS011;206;48.782;9.252;2024-01-15T03:07:58;12.20;;;6.83;;
438;SDS011;206;48.782;9.252;2024-01-15T03:10:24;10.20;;;7.23;;
438;SDS011;206;48.782;9.252;2024-01-15T03:12:49;14.33;;;6.97;;
438;SDS011;206;48.782;9.252;2024-01-15T03:15:15;13.23;;;7.87;;
438;SDS011;206;48.782;9.252;2024-01-15T03:17:41;13.10;;;6.47;;
438;SDS011;206;48.782;9.252;2024-01-15T03:20:08;11.03;;;6.63;;
438;SDS011;206;48.782;9.252;2024-01-15T03:22:33;12.13;;;8.17;;
438;SDS011;206;48.782;9.252;2024-01-15T03:24:59;14.53;;;7.80;;
438;SDS011;206;48.782;9.252;2024-01-15T03:27:25;13.20;;;8.77;;
438;SDS011;206;48.782;9.252;2024-01-15T03:29:51;15.23;;;8.07;;
438;SDS011;206;48.782;9.252;2024-01-15T03:32:16;14.47;;;8.23;;
438;SDS011;206;48.782;9.252;2024-01-15T03:34:42;14.97;;;8.33;;
438;SDS011;206;48.782;9.252;2024-01-15T03:37:08;11.53;;;6.90;;
438;SDS011;206;48.782;9.252;2024-01-15T03:39:33;17.10;;;6.47;;
438;SDS011;206;48.782;9.252;2024-01-15T03:41:59;15.17;;;7.30;;
438;SDS011;206;48.782;9.252;2024-01-15T03:44:25;10.03;;;6.83;;
438;SDS011;206;48.782;9.252;2024-01-15T03:46:50;14.03;;;7.37;;
438;SDS011;206;48.782;9.252;2024-01-15T03:49:16;11.97;;;6.63;;
438;SDS011;206;48.782;9.252;2024-01-15T03:51:41;13.93;;;8.37;;
438;SDS011;206;48.782;9.252;2024-01-15T03:54:07;15.70;;;8.60;;
438;SDS011;206;48.782;9.252;2024-01-15T03:56:32;17.83;;;8.80;;
438;SDS011;206;48.782;9.252;2024-01-15T03:58:58;12.53;;;7.17;;
438;SDS011;206;48.782;9.252;2024-01-15T04:01:23;12.23;;;7.70;;
438;SDS011;206;48.782;9.252;2024-01-15T04:03:49;16.90;;;7.93;;
438;SDS011;206;48.782;9.252;2024-01-15T04:06:15;13.93;;;8.23;;
438;SDS011;206;48.782;9.252;2024-01-15T04:08:40;16.13;;;9.20;;
438;SDS011;206;48.782;9.252;2024-01-15T04:11:06;14.33;;;8.50;;
438;SDS011;206;48.782;9.252;2024-01-15T04:13:34;12.20;;;6.63;;
438;SDS011;206;48.782;9.252;2024-01-15T04:16:00;14.63;;;7.87;;
438;SDS011;206;48.782;9.252;2024-01-15T04:18:26;12.33;;;9.23;;
438;SDS011;206;48.782;9.252;2024-01-15T04:20:51;14.70;;;8.03;;
438;SDS011;206;48.782;9.252;2024-01-15T04:23:17;13.03;;;6.93;;
438;SDS011;206;48.782;9.252;2024-01-15T04:25:42;9.07;;;5.63;;
438;SDS011;206;48.782;9.252;2024-01-15T04:28:09;13.00;;;6.73;;
438;SDS011;206;48.782;9.252;2024-01-15T04:30:34;13.37;;;7.13;;
438;SDS011;206;48.782;9.252;2024-01-15T04:33:00;10.87;;;7.40;;
438;SDS011;206;48.782;9.252;2024-01-15T04:35:26;14.93;;;9.23;;
438;SDS011;206;48.782;9.252;2024-01-15T04:37:51;21.57;;;8.30;;
438;SDS011;206;48.782;9.252;2024-01-15T04:40:17;10.00;;;6.73;;
438;SDS011;206;48.782;9.252;2024-01-15T04:42:43;12.77;;;7.50;;
438;SDS011;206;48.782;9.252;2024-01-15T04:45:10;17.07;;;8.30;;
438;SDS011;206;48.782;9.252;2024-01-15T04:47:36;14.33;;;8.43;;
438;SDS011;206;48.782;9.252;2024-01-15T04:50:02;11.70;;;8.27;;
438;SDS011;206;48.782;9.252;2024-01-15T04:52:29;13.80;;;7.20;;
438;SDS011;206;48.782;9.252;2024-01-15T04:54:54;15.63;;;7.03;;
438;SDS011;206;48.782;9.252;2024-01-15T04:57:20;15.40;;;8.73;;
438;SDS011;206;48.782;9.252;2024-01-15T04:59:45;16.60;;;8.60;;
438;SDS011;206;48.782;9.252;2024-01-15T05:02:11;16.40;;;7.27;;
438;SDS011;206;48.782;9.252;2024-01-15T05:04:37;11.73;;;7.23;;
438;SDS011;206;48.782;9.252;2024-01-15T05:07:02;11.50;;;6.90;;
438;SDS011;206;48.782;9.252;2024-01-15T05:09:28;10.13;;;5.83;;
438;SDS011;206;48.782;9.252;2024-01-15T05:11:53;10.90;;;6.90;;
438;SDS011;206;48.782;9.252;2024-01-15T05:14:19;12.07;;;7.80;;
438;SDS011;206;48.782;9.252;2024-01-15T05:16:48;12.87;;;6.13;;
438;SDS011;206;48.782;9.252;2024-01-15T05:19:16;10.13;;;6.10;;
438;SDS011;206;48.782;9.252;2024-01-15T05:21:42;9.40;;;6.20;;
438;SDS011;206;48.782;9.252;2024-01-15T05:24:08;9.00;;;6.60;;
438;SDS011;206;48.782;9.252;2024-01-15T05:26:34;12.17;;;5.73;;
438;SDS011;206;48.782;9.252;2024-01-15T05:29:00;10.13;;;5.77;;
438;SDS011;206;48.782;9.252;2024-01-15T05:31:25;10.07;;;5.33;;
438;SDS011;206;48.782;9.252;2024-01-15T05:33:51;11.07;;;5.47;;
438;SDS011;206;48.782;9.252;2024-01-15T05:36:16;8.70;;;5.93;;
438;SDS011;206;48.782;9.252;2024-01-15T05:38:42;12.53;;;5.07;;
438;SDS011;206;48.782;9.252;2024-01-15T05:41:08;8.13;;;5.23;;
438;SDS011;206;48.782;9.252;2024-01-15T05:43:33;10.80;;;6.00;;
438;SDS011;206;48.782;9.252;2024-01-15T05:45:59;11.10;;;6.83;;
438;SDS011;206;48.782;9.252;2024-01-15T05:48:25;9.00;;;6.53;;
438;SDS011;206;48.782;9.252;2024-01-15T05:50:50;8.50;;;6.17;;
438;SDS011;206;48.782;9.252;2024-01-15T05:53:16;15.27;;;7.37;;
438;SDS011;206;48.782;9.252;2024-01-15T05:55:42;13.87;;;7.10;;
438;SDS011;206;48.782;9.252;2024-01-15T05:58:07;15.83;;;7.90;;
438;SDS011;206;48.782;9.252;2024-01-15T06:00:33;20.20;;;7.57;;
438;SDS011;206;48.782;9.252;2024-01-15T06:03:00;13.87;;;8.47;;
438;SDS011;206;48.782;9.252;2024-01-15T06:05:25;15.90;;;7.10;;
438;SDS011;206;48.782;9.252;2024-01-15T06:07:51;9.90;;;6.90;;
438;SDS011;206;48.782;9.252;2024-01-15T06:10:17;10.40;;;6.80;;
438;SDS011;206;48.782;9.252;2024-01-15T06:12:43;12.20;;;6.33;;
438;SDS011;206;48.782;9.252;2024-01-15T06:15:09;13.77;;;7.80;;
438;SDS011;206;48.782;9.252;2024-01-15T06:17:35;12.30;;;7.70;;
438;SDS011;206;48.782;9.252;2024-01-15T06:20:02;12.47;;;7.03;;
438;SDS011;206;48.782;9.252;2024-01-15T06:22:28;14.40;;;8.00;;
438;SDS011;206;48.782;9.252;2024-01-15T06:24:54;12.60;;;7.00;;
438;SDS011;206;48.782;9.252;2024-01-15T06:27:20;10.83;;;7.80;;
438;SDS011;206;48.782;9.252;2024-01-15T06:29:46;13.47;;;8.40;;
438;SDS011;206;48.782;9.252;2024-01-15T06:32:12;11.70;;;7.27;;
438;SDS011;206;48.782;9.252;2024-01-15T06:34:38;10.40;;;7.33;;
438;SDS011;206;48.782;9.252;2024-01-15T06:37:04;14.73;;;9.10;;
438;SDS011;206;48.782;9.252;2024-01-15T06:39:30;11.70;;;7.37;;
438;SDS011;206;48.782;9.252;2024-01-15T06:41:55;10.83;;;8.60;;
438;SDS011;206;48.782;9.252;2024-01-15T06:44:21;13.33;;;8.50;;
438;SDS011;206;48.782;9.252;2024-01-15T06:46:47;16.20;;;11.40;;
438;SDS011;206;48.782;9.252;2024-01-15T06:49:12;21.17;;;17.00;;
438;SDS011;206;48.782;9.252;2024-01-15T06:51:39;19.53;;;11.27;;
438;SDS011;206;48.782;9.252;2024-01-15T06:54:05;20.43;;;14.00;;
438;SDS011;206;48.782;9.252;2024-01-15T06:56:31;12.57;;;7.60;;
438;SDS011;206;48.782;9.252;2024-01-15T06:58:57;18.80;;;9.30;;
438;SDS011;206;48.782;9.252;2024-01-15T07:01:23;12.37;;;7.10;;
438;SDS011;206;48.782;9.252;2024-01-15T07:03:48;10.93;;;7.83;;
438;SDS011;206;48.782;9.252;2024-01-15T07:06:14;11.43;;;9.00;;
438;SDS011;206;48.782;9.252;2024-01-15T07:08:40;12.63;;;7.77;;
438;SDS011;206;48.782;9.252;2024-01-15T07:11:06;10.00;;;6.47;;
438;SDS011;206;48.782;9.252;2024-01-15T07:13:32;9.97;;;5.80;;
438;SDS011;206;48.782;9.252;2024-01-15T07:15:58;13.13;;;8.50;;
438;SDS011;206;48.782;9.252;2024-01-15T07:18:24;9.70;;;6.40;;
438;SDS011;206;48.782;9.252;2024-01-15T07:20:50;10.37;;;7.30;;
438;SDS011;206;48.782;9.252;2024-01-15T07:23:16;10.97;;;8.07;;
438;SDS011;206;48.782;9.252;2024-01-15T07:25:42;9.53;;;6.40;;
438;SDS011;206;48.782;9.252;2024-01-15T07:28:08;9.83;;;5.83;;
438;SDS011;206;48.782;9.252;2024-01-15T07:30:34;7.10;;;5.37;;
438;SDS011;206;48.782;9.252;2024-01-15T07:32:59;12.87;;;8.43;;
438;SDS011;206;48.782;9.252;2024-01-15T07:35:25;13.47;;;7.43;;
438;SDS011;206;48.782;9.252;2024-01-15T07:37:50;11.50;;;6.63;;
438;SDS011;206;48.782;9.252;2024-01-15T07:40:16;13.43;;;6.67;;
438;SDS011;206;48.782;9.252;2024-01-15T07:42:42;13.90;;;6.43;;
438;SDS011;206;48.782;9.252;2024-01-15T07:45:07;9.27;;;6.07;;
438;SDS011;206;48.782;9.252;2024-01-15T07:47:34;10.43;;;5.40;;
438;SDS011;206;48.782;9.252;2024-01-15T07:50:00;8.80;;;5.50;;
438;SDS011;206;48.782;9.252;2024-01-15T07:52:25;10.90;;;5.17;;
438;SDS011;206;48.782;9.252;2024-01-15T07:54:51;13.33;;;6.43;;
438;SDS011;206;48.782;9.252;2024-01-15T07:57:16;7.40;;;5.40;;
438;SDS011;206;48.782;9.252;2024-01-15T07:59:42;7.90;;;5.00;;
438;SDS011;206;48.782;9.252;2024-01-15T08:02:08;15.37;;;7.07;;
438;SDS011;206;48.782;9.252;2024-01-15T08:04:33;14.93;;;6.77;;
438;SDS011;206;48.782;9.252;2024-01-15T08:06:59;8.40;;;6.37;;
438;SDS011;206;48.782;9.252;2024-01-15T08:09:25;9.73;;;6.37;;
438;SDS011;206;48.782;9.252;2024-01-15T08:11:50;9.10;;;5.30;;
438;SDS011;206;48.782;9.252;2024-01-15T08:14:16;9.87;;;6.33;;
438;SDS011;206;48.782;9.252;2024-01-15T08:16:42;9.40;;;5.97;;
438;SDS011;206;48.782;9.252;2024-01-15T08:19:08;6.57;;;4.47;;
438;SDS011;206;48.782;9.252;2024-01-15T08:21:34;7.73;;;5.60;;
438;SDS011;206;48.782;9.252;2024-01-15T08:24:00;14.17;;;5.80;;
438;SDS011;206;48.782;9.252;2024-01-15T08:26:27;13.30;;;6.33;;
438;SDS011;206;48.782;9.252;2024-01-15T08:28:53;8.87;;;5.13;;
438;SDS011;206;48.782;9.252;2024-01-15T08:31:19;25.53;;;7.37;;
438;SDS011;206;48.782;9.252;2024-01-15T08:33:44;11.33;;;7.47;;
438;SDS011;206;48.782;9.252;2024-01-15T08:36:10;12.60;;;6.63;;
438;SDS011;206;48.782;9.252;2024-01-15T08:38:36;7.10;;;5.10;;
438;SDS011;206;48.782;9.252;2024-01-15T08:41:02;9.53;;;6.00;;
438;SDS011;206;48.782;9.252;2024-01-15T08:43:27;11.07;;;6.23;;
438;SDS011;206;48.782;9.252;2024-01-15T08:45:53;10.10;;;5.63;;
438;SDS011;206;48.782;9.252;2024-01-15T08:48:18;8.80;;;5.23;;
438;SDS011;206;48.782;9.252;2024-01-15T08:50:44;20.03;;;8.27;;
438;SDS011;206;48.782;9.252;2024-01-15T08:53:13;8.03;;;5.70;;
438;SDS011;206;48.782;9.252;2024-01-15T08:55:39;6.93;;;4.70;;
438;SDS011;206;48.782;9.252;2024-01-15T08:58:07;8.57;;;4.10;;
438;SDS011;206;48.782;9.252;2024-01-15T09:00:33;7.60;;;5.17;;
438;SDS011;206;48.782;9.252;2024-01-15T09:02:59;12.47;;;5.00;;
438;SDS011;206;48.782;9.252;2024-01-15T09:05:24;6.40;;;4.40;;
438;SDS011;206;48.782;9.252;2024-01-15T09:07:50;13.20;;;6.20;;
438;SDS011;206;48.782;9.252;2024-01-15T09:10:17;10.30;;;5.40;;
438;SDS011;206;48.782;9.252;2024-01-15T09:12:43;8.27;;;5.43;;
438;SDS011;206;48.782;9.252;2024-01-15T09:15:08;23.07;;;14.10;;
438;SDS011;206;48.782;9.252;2024-01-15T09:17:34;16.53;;;7.10;;
438;SDS011;206;48.782;9.252;2024-01-15T09:20:00;13.67;;;9.23;;
438;SDS011;206;48.782;9.252;2024-01-15T09:22:26;15.47;;;7.40;;
438;SDS011;206;48.782;9.252;2024-01-15T09:24:52;13.40;;;7.70;;
438;SDS011;206;48.782;9.252;2024-01-15T09:27:18;11.40;;;8.43;;
438;SDS011;206;48.782;9.252;2024-01-15T09:29:43;11.40;;;5.23;;
438;SDS011;206;48.782;9.252;2024-01-15T09:32:11;14.40;;;5.10;;
438;SDS011;206;48.782;9.252;2024-01-15T09:34:37;16.73;;;5.50;;
438;SDS011;206;48.782;9.252;2024-01-15T09:37:03;8.77;;;6.30;;
438;SDS011;206;48.782;9.252;2024-01-15T09:39:29;15.40;;;5.70;;
438;SDS011;206;48.782;9.252;2024-01-15T09:41:55;11.30;;;5.10;;
438;SDS011;206;48.782;9.252;2024-01-15T09:44:21;12.80;;;9.50;;
438;SDS011;206;48.782;9.252;2024-01-15T09:46:47;10.27;;;6.47;;
438;SDS011;206;48.782;9.252;2024-01-15T09:49:15;11.33;;;8.20;;
438;SDS011;206;48.782;9.252;2024-01-15T09:51:41;14.40;;;8.83;;
438;SDS011;206;48.782;9.252;2024-01-15T09:54:08;5.80;;;4.40;;
438;SDS011;206;48.782;9.252;2024-01-15T09:56:34;8.30;;;5.20;;
438;SDS011;206;48.782;9.252;2024-01-15T09:59:00;6.20;;;4.83;;
438;SDS011;206;48.782;9.252;2024-01-15T10:01:26;10.50;;;5.00;;
438;SDS011;206;48.782;9.252;2024-01-15T10:03:54;5.73;;;4.53;;
438;SDS011;206;48.782;9.252;2024-01-15T10:06:20;6.30;;;4.00;;
438;SDS011;206;48.782;9.252;2024-01-15T10:08:47;6.37;;;5.13;;
438;SDS011;206;48.782;9.252;2024-01-15T10:11:15;8.10;;;4.90;;
438;SDS011;206;48.782;9.252;2024-01-15T10:13:41;8.93;;;4.57;;
438;SDS011;206;48.782;9.252;2024-01-15T10:16:08;6.30;;;3.80;;
438;SDS011;206;48.782;9.252;2024-01-15T10:18:34;5.30;;;4.00;;
438;SDS011;206;48.782;9.252;2024-01-15T10:21:02;6.30;;;3.90;;
438;SDS011;206;48.782;9.252;2024-01-15T10:23:29;6.97;;;4.40;;
438;SDS011;206;48.782;9.252;2024-01-15T10:25:57;10.97;;;4.63;;
438;SDS011;206;48.782;9.252;2024-01-15T10:28:25;5.80;;;3.80;;
438;SDS011;206;48.782;9.252;2024-01-15T10:30:55;5.00;;;3.53;;
438;SDS011;206;48.782;9.252;2024-01-15T10:33:22;8.17;;;5.10;;
438;SDS011;206;48.782;9.252;2024-01-15T10:35:53;7.70;;;4.30;;
438;SDS011;206;48.782;9.252;2024-01-15T10:38:20;10.20;;;4.70;;
438;SDS011;206;48.782;9.252;2024-01-15T10:40:55;8.13;;;5.00;;
438;SDS011;206;48.782;9.252;2024-01-15T10:43:22;7.67;;;5.70;;
438;SDS011;206;48.782;9.252;2024-01-15T10:45:48;8.63;;;5.07;;
438;SDS011;206;48.782;9.252;2024-01-15T10:48:16;8.47;;;7.00;;
438;SDS011;206;48.782;9.252;2024-01-15T10:50:46;10.17;;;6.10;;
438;SDS011;206;48.782;9.252;2024-01-15T10:53:13;9.63;;;5.60;;
438;SDS011;206;48.782;9.252;2024-01-15T10:55:40;8.90;;;7.07;;
438;SDS011;206;48.782;9.252;2024-01-15T10:58:07;15.90;;;7.43;;
438;SDS011;206;48.782;9.252;2024-01-15T11:00:36;16.70;;;7.47;;
438;SDS011;206;48.782;9.252;2024-01-15T11:03:04;10.67;;;5.73;;
438;SDS011;206;48.782;9.252;2024-01-15T11:05:37;7.30;;;4.77;;
438;SDS011;206;48.782;9.252;2024-01-15T11:08:06;9.50;;;7.03;;
438;SDS011;206;48.782;9.252;2024-01-15T11:10:38;6.70;;;3.63;;
438;SDS011;206;48.782;9.252;2024-01-15T11:13:20;9.37;;;4.50;;
438;SDS011;206;48.782;9.252;2024-01-15T11:15:58;7.10;;;4.18;;
438;SDS011;206;48.782;9.252;2024-01-15T11:18:34;7.07;;;4.77;;
438;SDS011;206;48.782;9.252;2024-01-15T11:34:20;6.27;;;3.70;;
438;SDS011;206;48.782;9.252;2024-01-15T11:37:06;6.23;;;3.93;;
438;SDS011;206;48.782;9.252;2024-01-15T11:41:58;8.63;;;4.30;;
438;SDS011;206;48.782;9.252;2024-01-15T11:44:25;6.27;;;4.87;;
438;SDS011;206;48.782;9.252;2024-01-15T11:47:01;6.70;;;4.33;;
438;SDS011;206;48.782;9.252;2024-01-15T11:52:15;6.10;;;4.57;;
438;SDS011;206;48.782;9.252;2024-01-15T11:54:44;6.50;;;4.17;;
438;SDS011;206;48.782;9.252;2024-01-15T11:57:22;13.40;;;5.43;;
438;SDS011;206;48.782;9.252;2024-01-15T11:59:58;6.37;;;4.63;;
438;SDS011;206;48.782;9.252;2024-01-15T12:02:24;8.63;;;5.63;;
438;SDS011;206;48.782;9.252;2024-01-15T12:04:49;6.80;;;3.90;;
438;SDS011;206;48.782;9.252;2024-01-15T12:07:15;8.90;;;4.70;;
438;SDS011;206;48.782;9.252;2024-01-15T12:09:43;7.10;;;5.10;;
438;SDS011;206;48.782;9.252;2024-01-15T12:12:09;6.30;;;4.40;;
438;SDS011;206;48.782;9.252;2024-01-15T12:14:46;5.53;;;4.77;;
438;SDS011;206;48.782;9.252;2024-01-15T12:17:11;7.70;;;4.70;;
438;SDS011;206;48.782;9.252;2024-01-15T12:19:37;6.80;;;4.90;;
438;SDS011;206;48.782;9.252;2024-01-15T12:22:02;5.93;;;4.90;;
438;SDS011;206;48.782;9.252;2024-01-15T12:24:28;7.87;;;4.77;;
438;SDS011;206;48.782;9.252;2024-01-15T12:26:54;5.37;;;4.40;;
438;SDS011;206;48.782;9.252;2024-01-15T12:29:20;7.50;;;4.30;;
438;SDS011;206;48.782;9.252;2024-01-15T12:31:48;6.87;;;4.03;;
438;SDS011;206;48.782;9.252;2024-01-15T12:34:14;9.30;;;5.10;;
438;SDS011;206;48.782;9.252;2024-01-15T12:36:40;6.43;;;3.97;;
438;SDS011;206;48.782;9.252;2024-01-15T12:39:06;6.60;;;4.13;;
438;SDS011;206;48.782;9.252;2024-01-15T12:41:36;8.20;;;4.70;;
438;SDS011;206;48.782;9.252;2024-01-15T12:44:03;6.83;;;4.47;;
438;SDS011;206;48.782;9.252;2024-01-15T12:46:29;6.40;;;5.70;;
438;SDS011;206;48.782;9.252;2024-01-15T12:48:55;8.27;;;5.20;;
438;SDS011;206;48.782;9.252;2024-01-15T12:51:24;7.27;;;4.63;;
438;SDS011;206;48.782;9.252;2024-01-15T12:53:51;7.67;;;4.37;;
438;SDS011;206;48.782;9.252;2024-01-15T12:56:16;7.97;;;5.63;;
438;SDS011;206;48.782;9.252;2024-01-15T12:58:42;5.13;;;4.27;;
438;SDS011;206;48.782;9.252;2024-01-15T13:01:07;10.07;;;5.00;;
438;SDS011;206;48.782;9.252;2024-01-15T13:03:33;10.57;;;5.47;;
438;SDS011;206;48.782;9.252;2024-01-15T13:05:58;10.83;;;7.57;;
438;SDS011;206;48.782;9.252;2024-01-15T13:08:24;14.53;;;10.50;;
438;SDS011;206;48.782;9.252;2024-01-15T13:10:52;16.17;;;10.90;;
438;SDS011;206;48.782;9.252;2024-01-15T13:13:21;8.50;;;6.50;;
438;SDS011;206;48.782;9.252;2024-01-15T13:15:46;14.57;;;8.80;;
438;SDS011;206;48.782;9.252;2024-01-15T13:18:12;16.57;;;8.20;;
438;SDS011;206;48.782;9.252;2024-01-15T13:20:38;29.30;;;16.43;;
438;SDS011;206;48.782;9.252;2024-01-15T13:23:03;9.17;;;5.10;;
438;SDS011;206;48.782;9.252;2024-01-15T13:25:29;8.43;;;4.40;;
438;SDS011;206;48.782;9.252;2024-01-15T13:27:54;9.60;;;4.70;;
438;SDS011;206;48.782;9.252;2024-01-15T13:30:20;8.70;;;4.50;;
438;SDS011;206;48.782;9.252;2024-01-15T13:32:46;7.70;;;5.00;;
438;SDS011;206;48.782;9.252;2024-01-15T13:35:12;8.63;;;5.17;;
438;SDS011;206;48.782;9.252;2024-01-15T13:37:38;10.03;;;8.27;;
438;SDS011;206;48.782;9.252;2024-01-15T13:40:06;14.13;;;10.00;;
438;SDS011;206;48.782;9.252;2024-01-15T13:42:34;10.60;;;9.37;;
438;SDS011;206;48.782;9.252;2024-01-15T13:45:03;14.60;;;13.90;;
438;SDS011;206;48.782;9.252;2024-01-15T13:47:30;8.07;;;7.60;;
438;SDS011;206;48.782;9.252;2024-01-15T13:49:56;10.43;;;9.90;;
438;SDS011;206;48.782;9.252;2024-01-15T13:52:23;9.30;;;6.67;;
438;SDS011;206;48.782;9.252;2024-01-15T13:54:48;5.40;;;3.77;;
438;SDS011;206;48.782;9.252;2024-01-15T13:57:14;8.13;;;4.97;;
438;SDS011;206;48.782;9.252;2024-01-15T13:59:40;7.27;;;4.23;;
438;SDS011;206;48.782;9.252;2024-01-15T14:02:05;7.07;;;5.33;;
438;SDS011;206;48.782;9.252;2024-01-15T14:04:31;9.03;;;5.80;;
438;SDS011;206;48.782;9.252;2024-01-15T14:06:57;6.37;;;5.00;;
438;SDS011;206;48.782;9.252;2024-01-15T14:09:22;8.57;;;5.53;;
438;SDS011;206;48.782;9.252;2024-01-15T14:11:48;6.30;;;4.63;;
438;SDS011;206;48.782;9.252;2024-01-15T14:14:14;5.10;;;3.93;;
438;SDS011;206;48.782;9.252;2024-01-15T14:16:40;5.67;;;4.73;;
438;SDS011;206;48.782;9.252;2024-01-15T14:19:05;7.97;;;4.50;;
438;SDS011;206;48.782;9.252;2024-01-15T14:21:34;9.83;;;5.67;;
438;SDS011;206;48.782;9.252;2024-01-15T14:24:00;15.93;;;7.63;;
438;SDS011;206;48.782;9.252;2024-01-15T14:26:26;11.30;;;8.67;;
438;SDS011;206;48.782;9.252;2024-01-15T14:28:52;6.23;;;5.77;;
438;SDS011;206;48.782;9.252;2024-01-15T14:31:19;9.93;;;6.00;;
438;SDS011;206;48.782;9.252;2024-01-15T14:33:45;7.70;;;4.60;;
438;SDS011;206;48.782;9.252;2024-01-15T14:36:11;7.50;;;5.43;;
438;SDS011;206;48.782;9.252;2024-01-15T14:38:36;7.93;;;4.70;;
438;SDS011;206;48.782;9.252;2024-01-15T14:41:02;6.07;;;4.63;;
438;SDS011;206;48.782;9.252;2024-01-15T14:43:27;7.80;;;4.70;;
438;SDS011;206;48.782;9.252;2024-01-15T14:45:53;4.70;;;4.47;;
438;SDS011;206;48.782;9.252;2024-01-15T14:48:19;5.00;;;4.30;;
438;SDS011;206;48.782;9.252;2024-01-15T14:50:44;6.77;;;4.80;;
438;SDS011;206;48.782;9.252;2024-01-15T14:53:10;4.80;;;4.20;;
438;SDS011;206;48.782;9.252;2024-01-15T14:55:36;9.00;;;6.07;;
438;SDS011;206;48.782;9.252;2024-01-15T14:58:01;4.77;;;4.17;;
438;SDS011;206;48.782;9.252;2024-01-15T15:00:27;9.47;;;5.73;;
438;SDS011;206;48.782;9.252;2024-01-15T15:02:53;6.57;;;5.33;;
438;SDS011;206;48.782;9.252;2024-01-15T15:05:18;5.63;;;3.97;;
438;SDS011;206;48.782;9.252;2024-01-15T15:07:45;5.87;;;4.73;;
438;SDS011;206;48.782;9.252;2024-01-15T15:10:10;13.40;;;6.30;;
438;SDS011;206;48.782;9.252;2024-01-15T15:12:36;7.43;;;5.20;;
438;SDS011;206;48.782;9.252;2024-01-15T15:15:02;7.20;;;4.70;;
438;SDS011;206;48.782;9.252;2024-01-15T15:17:28;8.07;;;5.80;;
438;SDS011;206;48.782;9.252;2024-01-15T15:19:54;6.60;;;5.80;;
438;SDS011;206;48.782;9.252;2024-01-15T15:22:20;6.77;;;5.67;;
438;SDS011;206;48.782;9.252;2024-01-15T15:24:46;10.33;;;7.10;;
438;SDS011;206;48.782;9.252;2024-01-15T15:27:11;15.00;;;9.00;;
438;SDS011;206;48.782;9.252;2024-01-15T15:29:37;15.53;;;12.17;;
438;SDS011;206;48.782;9.252;2024-01-15T15:32:03;11.40;;;10.00;;
438;SDS011;206;48.782;9.252;2024-01-15T15:34:28;18.30;;;16.30;;
438;SDS011;206;48.782;9.252;2024-01-15T15:36:54;13.07;;;11.00;;
438;SDS011;206;48.782;9.252;2024-01-15T15:39:20;11.10;;;7.90;;
438;SDS011;206;48.782;9.252;2024-01-15T15:41:45;11.40;;;8.57;;
438;SDS011;206;48.782;9.252;2024-01-15T15:44:11;8.90;;;7.60;;
438;SDS011;206;48.782;9.252;2024-01-15T15:46:39;12.50;;;6.50;;